createdAt,value
2022-11-04T00:00:01.251Z,5.50
2022-11-04T00:01:03.220Z,6.40
2022-11-04T00:02:03.347Z,5.27
2022-11-04T00:03:00.933Z,5.67
2022-11-04T00:04:01.221Z,6.70
2022-11-04T00:05:00.934Z,4.60
2022-11-04T00:06:01.786Z,5.73
2022-11-04T00:07:00.948Z,5.43
2022-11-04T00:08:00.931Z,6.17
2022-11-04T00:09:00.954Z,6.07
2022-11-04T00:10:00.942Z,5.00
2022-11-04T00:11:01.297Z,6.43
2022-11-04T00:12:00.914Z,5.47
2022-11-04T00:13:01.213Z,5.57
2022-11-04T00:14:01.127Z,6.90
2022-11-04T00:15:00.939Z,6.97
2022-11-04T00:16:01.060Z,5.33
2022-11-04T00:17:01.549Z,5.83
2022-11-04T00:18:00.935Z,6.57
2022-11-04T00:19:01.669Z,6.33
2022-11-04T00:20:00.919Z,6.00
2022-11-04T00:21:01.217Z,6.13
2022-11-04T00:22:01.237Z,4.90
2022-11-04T00:23:00.967Z,5.80
2022-11-04T00:24:01.410Z,7.10
2022-11-04T00:25:01.031Z,6.10
2022-11-04T00:26:01.224Z,5.33
2022-11-04T00:27:00.931Z,6.13
2022-11-04T00:28:03.369Z,6.37
2022-11-04T00:29:00.936Z,6.27
2022-11-04T00:30:02.172Z,6.97
2022-11-04T00:31:02.893Z,6.50
2022-11-04T00:32:01.230Z,6.70
2022-11-04T00:33:00.924Z,5.27
2022-11-04T00:34:00.960Z,5.07
2022-11-04T00:35:00.962Z,7.10
2022-11-04T00:36:00.923Z,5.40
2022-11-04T00:37:00.920Z,5.70
2022-11-04T00:38:01.234Z,5.47
2022-11-04T00:39:01.094Z,7.13
2022-11-04T00:40:00.988Z,6.17
2022-11-04T00:41:00.941Z,7.50
2022-11-04T00:42:01.257Z,6.00
2022-11-04T00:43:00.921Z,7.00
2022-11-04T00:44:03.296Z,6.63
2022-11-04T00:45:00.966Z,6.80
2022-11-04T00:46:01.109Z,6.27
2022-11-04T00:47:00.953Z,6.43
2022-11-04T00:48:01.335Z,7.20
2022-11-04T00:49:01.233Z,6.50
2022-11-04T00:50:01.439Z,6.47
2022-11-04T00:51:01.297Z,6.83
2022-11-04T00:52:01.269Z,7.57
2022-11-04T00:53:02.272Z,6.47
2022-11-04T00:54:00.940Z,6.97
2022-11-04T00:55:01.249Z,7.70
2022-11-04T00:56:01.288Z,7.70
2022-11-04T00:57:01.258Z,7.73
2022-11-04T00:58:01.276Z,6.60
2022-11-04T00:59:00.946Z,8.00
2022-11-04T01:00:00.915Z,6.90
2022-11-04T01:01:07.307Z,6.07
2022-11-04T01:02:01.422Z,8.03
2022-11-04T01:03:00.917Z,8.47
2022-11-04T01:04:01.414Z,8.33
2022-11-04T01:05:01.175Z,8.20
2022-11-04T01:06:01.363Z,8.80
2022-11-04T01:07:01.772Z,9.47
2022-11-04T01:08:00.938Z,8.93
2022-11-04T01:09:03.660Z,9.07
2022-11-04T01:10:00.935Z,9.50
2022-11-04T01:11:01.190Z,7.63
2022-11-04T01:12:01.537Z,7.30
2022-11-04T01:13:01.141Z,6.97
2022-11-04T01:14:01.608Z,8.13
2022-11-04T01:15:01.254Z,7.87
2022-11-04T01:16:03.447Z,6.37
2022-11-04T01:17:01.530Z,7.47
2022-11-04T01:18:00.940Z,7.87
2022-11-04T01:19:01.479Z,6.27
2022-11-04T01:20:01.229Z,8.47
2022-11-04T01:21:02.034Z,7.50
2022-11-04T01:22:01.225Z,8.00
2022-11-04T01:23:01.297Z,6.00
2022-11-04T01:24:01.038Z,5.67
2022-11-04T01:25:00.946Z,8.40
2022-11-04T01:26:03.755Z,6.43
2022-11-04T01:27:00.969Z,5.60
2022-11-04T01:28:00.961Z,6.47
2022-11-04T01:29:01.115Z,7.07
2022-11-04T01:30:01.234Z,6.17
2022-11-04T01:31:04.715Z,6.83
2022-11-04T01:32:01.276Z,6.87
2022-11-04T01:33:00.932Z,6.50
2022-11-04T01:34:01.246Z,7.77
2022-11-04T01:35:01.236Z,5.80
2022-11-04T01:36:01.696Z,5.67
2022-11-04T01:37:00.957Z,6.87
2022-11-04T01:38:00.966Z,5.17
2022-11-04T01:39:01.333Z,7.20
2022-11-04T01:40:01.283Z,7.20
2022-11-04T01:41:01.872Z,5.80
2022-11-04T01:42:01.353Z,7.30
2022-11-04T01:43:01.227Z,6.73
2022-11-04T01:44:03.228Z,7.27
2022-11-04T01:45:01.061Z,7.13
2022-11-04T01:46:02.021Z,6.07
2022-11-04T01:47:01.283Z,6.67
2022-11-04T01:48:04.937Z,6.87
2022-11-04T01:49:06.522Z,6.93
2022-11-04T01:50:06.183Z,6.27
2022-11-04T01:51:01.388Z,5.67
2022-11-04T01:52:05.888Z,6.43
2022-11-04T01:53:06.416Z,7.30
2022-11-04T01:54:02.416Z,6.77
2022-11-04T01:55:05.934Z,6.03
2022-11-04T01:56:06.132Z,5.50
2022-11-04T01:57:04.943Z,5.77
2022-11-04T01:58:07.293Z,6.77
2022-11-04T01:59:07.851Z,7.10
2022-11-04T02:00:04.926Z,6.33
2022-11-04T02:01:01.817Z,6.03
2022-11-04T02:02:01.566Z,6.50
2022-11-04T02:03:08.046Z,6.53
2022-11-04T02:04:01.479Z,5.77
2022-11-04T02:05:00.930Z,6.53
2022-11-04T02:06:02.458Z,5.60
2022-11-04T02:07:04.732Z,6.30
2022-11-04T02:08:03.338Z,5.63
2022-11-04T02:09:01.285Z,5.07
2022-11-04T02:10:02.024Z,6.53
2022-11-04T02:11:03.002Z,6.00
2022-11-04T02:12:01.263Z,4.80
2022-11-04T02:13:04.382Z,6.73
2022-11-04T02:14:01.948Z,6.13
2022-11-04T02:15:02.415Z,6.10
2022-11-04T02:16:12.235Z,5.20
2022-11-04T02:17:08.847Z,6.47
2022-11-04T02:18:17.102Z,6.17
2022-11-04T02:19:14.019Z,5.67
2022-11-04T02:20:20.407Z,5.33
2022-11-04T02:21:20.400Z,6.13
2022-11-04T02:22:20.404Z,5.10
2022-11-04T02:23:20.400Z,6.00
2022-11-04T02:24:20.403Z,5.83
2022-11-04T02:25:20.409Z,6.00
2022-11-04T02:26:20.411Z,6.03
2022-11-04T02:27:20.414Z,5.73
2022-11-04T02:28:20.403Z,5.00
2022-11-04T02:29:16.761Z,5.40
2022-11-04T02:30:06.638Z,5.00
2022-11-04T02:31:08.742Z,4.90
2022-11-04T02:32:09.768Z,6.30
2022-11-04T02:33:16.750Z,6.10
2022-11-04T02:34:11.313Z,5.20
2022-11-04T02:35:07.390Z,5.57
2022-11-04T02:36:04.961Z,5.03
2022-11-04T02:37:14.735Z,5.10
2022-11-04T02:38:11.548Z,5.80
2022-11-04T02:39:07.697Z,6.20
2022-11-04T02:40:10.985Z,5.60
2022-11-04T02:41:11.263Z,4.37
2022-11-04T02:42:10.755Z,6.13
2022-11-04T02:43:11.765Z,5.97
2022-11-04T02:44:12.554Z,5.27
2022-11-04T02:45:11.737Z,5.90
2022-11-04T02:46:08.449Z,5.43
2022-11-04T02:47:05.791Z,6.07
2022-11-04T02:48:04.753Z,4.63
2022-11-04T02:49:08.128Z,5.57
2022-11-04T02:50:10.000Z,4.23
2022-11-04T02:51:06.979Z,6.80
2022-11-04T02:52:06.020Z,5.37
2022-11-04T02:53:08.031Z,4.97
2022-11-04T02:54:07.063Z,4.40
2022-11-04T02:55:06.459Z,4.77
2022-11-04T02:56:03.347Z,5.40
2022-11-04T02:57:06.402Z,4.80
2022-11-04T02:58:06.134Z,5.10
2022-11-04T02:59:05.738Z,5.73
2022-11-04T03:00:03.986Z,4.93
2022-11-04T03:01:03.309Z,5.10
2022-11-04T03:02:04.777Z,4.83
2022-11-04T03:03:06.733Z,6.73
2022-11-04T03:04:08.377Z,5.70
2022-11-04T03:05:05.003Z,5.47
2022-11-04T03:06:04.044Z,5.00
2022-11-04T03:07:02.977Z,4.07
2022-11-04T03:08:07.000Z,6.00
2022-11-04T03:09:03.144Z,5.73
2022-11-04T03:10:06.231Z,5.57
2022-11-04T03:11:05.696Z,5.33
2022-11-04T03:12:07.745Z,4.47
2022-11-04T03:13:08.337Z,5.57
2022-11-04T03:14:05.724Z,5.63
2022-11-04T03:15:04.027Z,6.00
2022-11-04T03:16:05.241Z,5.23
2022-11-04T03:17:07.160Z,5.13
2022-11-04T03:18:14.743Z,6.27
2022-11-04T03:19:09.207Z,5.47
2022-11-04T03:20:06.459Z,6.10
2022-11-04T03:21:05.974Z,5.60
2022-11-04T03:22:08.305Z,5.07
2022-11-04T03:23:01.263Z,5.73
2022-11-04T03:24:03.029Z,5.00
2022-11-04T03:25:02.249Z,6.70
2022-11-04T03:26:10.200Z,5.83
2022-11-04T03:27:08.695Z,6.23
2022-11-04T03:28:11.784Z,5.47
2022-11-04T03:29:15.232Z,5.20
2022-11-04T03:30:06.047Z,5.90
2022-11-04T03:31:04.115Z,5.70
2022-11-04T03:32:07.474Z,5.90
2022-11-04T03:33:07.229Z,6.00
2022-11-04T03:34:00.941Z,5.67
2022-11-04T03:35:01.197Z,6.20
2022-11-04T03:36:01.120Z,5.37
2022-11-04T03:37:01.571Z,7.07
2022-11-04T03:38:01.334Z,4.87
2022-11-04T03:39:01.331Z,6.00
2022-11-04T03:40:01.888Z,6.10
2022-11-04T03:41:02.519Z,6.87
2022-11-04T03:42:06.864Z,5.87
2022-11-04T03:43:08.247Z,4.80
2022-11-04T03:44:01.407Z,5.73
2022-11-04T03:45:01.428Z,5.43
2022-11-04T03:46:01.160Z,5.37
2022-11-04T03:47:01.261Z,5.20
2022-11-04T03:48:01.639Z,6.60
2022-11-04T03:49:02.261Z,4.97
2022-11-04T03:50:08.712Z,5.80
2022-11-04T03:51:01.087Z,6.73
2022-11-04T03:52:00.939Z,5.13
2022-11-04T03:53:01.306Z,5.33
2022-11-04T03:54:01.282Z,6.40
2022-11-04T03:55:02.118Z,4.63
2022-11-04T03:56:13.924Z,6.07
2022-11-04T03:57:18.119Z,5.00
2022-11-04T03:58:07.376Z,5.87
2022-11-04T03:59:20.070Z,5.37
2022-11-04T04:00:06.435Z,5.87
2022-11-04T04:01:14.133Z,6.17
2022-11-04T04:02:11.379Z,5.00
2022-11-04T04:03:07.626Z,5.93
2022-11-04T04:04:11.614Z,5.40
2022-11-04T04:05:06.048Z,5.20
2022-11-04T04:06:10.268Z,5.97
2022-11-04T04:07:06.002Z,5.23
2022-11-04T04:08:14.372Z,5.20
2022-11-04T04:09:08.621Z,6.70
2022-11-04T04:10:07.373Z,5.13
2022-11-04T04:11:08.311Z,5.27
2022-11-04T04:12:09.994Z,5.07
2022-11-04T04:13:08.937Z,6.47
2022-11-04T04:14:06.204Z,5.40
2022-11-04T04:15:06.748Z,5.57
2022-11-04T04:16:07.127Z,5.37
2022-11-04T04:17:06.161Z,5.23
2022-11-04T04:18:04.525Z,6.20
2022-11-04T04:19:07.854Z,5.13
2022-11-04T04:20:04.732Z,5.23
2022-11-04T04:21:06.022Z,6.50
2022-11-04T04:22:06.496Z,5.53
2022-11-04T04:23:04.899Z,6.00
2022-11-04T04:24:06.104Z,5.43
2022-11-04T04:25:05.864Z,3.87
2022-11-04T04:26:05.966Z,4.80
2022-11-04T04:27:02.178Z,5.90
2022-11-04T04:28:02.887Z,5.00
2022-11-04T04:29:04.551Z,6.77
2022-11-04T04:30:04.458Z,5.90
2022-11-04T04:31:01.948Z,5.70
2022-11-04T04:32:04.433Z,5.53
2022-11-04T04:33:07.429Z,5.47
2022-11-04T04:34:01.330Z,5.80
2022-11-04T04:35:01.355Z,5.03
2022-11-04T04:36:01.427Z,6.80
2022-11-04T04:37:04.056Z,5.90
2022-11-04T04:38:04.542Z,6.00
2022-11-04T04:39:04.694Z,5.70
2022-11-04T04:40:01.030Z,5.67
2022-11-04T04:41:09.271Z,5.90
2022-11-04T04:42:01.493Z,5.87
2022-11-04T04:43:01.152Z,4.20
2022-11-04T04:44:01.301Z,4.63
2022-11-04T04:45:02.935Z,5.43
2022-11-04T04:46:01.973Z,5.57
2022-11-04T04:47:03.182Z,5.80
2022-11-04T04:48:01.439Z,6.20
2022-11-04T04:49:04.825Z,5.20
2022-11-04T04:50:01.710Z,5.40
2022-11-04T04:51:01.020Z,5.13
2022-11-04T04:52:03.654Z,6.10
2022-11-04T04:53:01.352Z,4.90
2022-11-04T04:54:00.968Z,5.27
2022-11-04T04:55:00.953Z,5.33
2022-11-04T04:56:01.226Z,4.43
2022-11-04T04:57:00.926Z,4.87
2022-11-04T04:58:01.076Z,4.97
2022-11-04T04:59:01.284Z,4.97
2022-11-04T05:00:01.108Z,5.00
2022-11-04T05:01:00.945Z,5.47
2022-11-04T05:02:01.044Z,5.30
2022-11-04T05:03:01.690Z,4.37
2022-11-04T05:04:00.936Z,6.20
2022-11-04T05:05:00.994Z,4.77
2022-11-04T05:06:01.220Z,4.97
2022-11-04T05:07:00.929Z,6.00
2022-11-04T05:08:05.045Z,5.17
2022-11-04T05:09:00.928Z,4.23
2022-11-04T05:10:01.002Z,4.47
2022-11-04T05:11:01.251Z,4.40
2022-11-04T05:12:01.329Z,4.87
2022-11-04T05:13:01.258Z,6.00
2022-11-04T05:14:01.138Z,6.03
2022-11-04T05:15:01.219Z,5.00
2022-11-04T05:16:04.753Z,4.47
2022-11-04T05:17:01.000Z,4.87
2022-11-04T05:18:02.593Z,5.63
2022-11-04T05:19:00.923Z,5.73
2022-11-04T05:20:00.916Z,5.67
2022-11-04T05:21:02.444Z,5.27
2022-11-04T05:22:01.560Z,5.50
2022-11-04T05:23:01.232Z,5.27
2022-11-04T05:24:01.295Z,4.50
2022-11-04T05:25:01.123Z,4.30
2022-11-04T05:26:00.950Z,5.00
2022-11-04T05:27:00.934Z,4.70
2022-11-04T05:28:01.455Z,4.43
2022-11-04T05:29:01.363Z,5.77
2022-11-04T05:30:01.242Z,4.53
2022-11-04T05:31:03.471Z,5.07
2022-11-04T05:32:00.926Z,4.13
2022-11-04T05:33:04.726Z,4.37
2022-11-04T05:34:01.234Z,4.47
2022-11-04T05:35:01.350Z,4.50
2022-11-04T05:36:06.000Z,4.07
2022-11-04T05:37:00.922Z,5.70
2022-11-04T05:38:01.011Z,4.07
2022-11-04T05:39:00.919Z,5.33
2022-11-04T05:40:01.224Z,4.20
2022-11-04T05:41:01.317Z,4.97
2022-11-04T05:42:01.229Z,4.00
2022-11-04T05:43:01.248Z,5.20
2022-11-04T05:44:03.127Z,4.77
2022-11-04T05:45:00.914Z,5.47
2022-11-04T05:46:01.497Z,4.43
2022-11-04T05:47:01.328Z,3.70
2022-11-04T05:48:03.311Z,5.10
2022-11-04T05:49:01.286Z,4.53
2022-11-04T05:50:00.928Z,5.00
2022-11-04T05:51:00.929Z,5.30
2022-11-04T05:52:00.962Z,6.10
2022-11-04T05:53:01.335Z,4.87
2022-11-04T05:54:01.244Z,6.10
2022-11-04T05:55:00.943Z,6.03
2022-11-04T05:56:00.931Z,4.80
2022-11-04T05:57:01.220Z,5.10
2022-11-04T05:58:01.385Z,7.07
2022-11-04T05:59:01.231Z,4.33
2022-11-04T06:00:01.075Z,6.23
2022-11-04T06:01:11.810Z,5.47
2022-11-04T06:02:02.114Z,5.93
2022-11-04T06:03:01.093Z,4.90
2022-11-04T06:04:02.961Z,5.70
2022-11-04T06:05:00.920Z,5.80
2022-11-04T06:06:00.923Z,4.27
2022-11-04T06:07:01.261Z,5.07
2022-11-04T06:08:00.946Z,6.40
2022-11-04T06:09:02.918Z,5.47
2022-11-04T06:10:01.239Z,6.43
2022-11-04T06:11:01.237Z,4.90
2022-11-04T06:12:00.917Z,5.43
2022-11-04T06:13:00.947Z,5.83
2022-11-04T06:14:01.605Z,5.57
2022-11-04T06:15:01.239Z,4.57
2022-11-04T06:16:00.955Z,5.80
2022-11-04T06:17:01.523Z,5.60
2022-11-04T06:18:00.943Z,5.63
2022-11-04T06:19:05.919Z,4.93
2022-11-04T06:20:01.474Z,5.03
2022-11-04T06:21:20.404Z,4.87
2022-11-04T06:22:01.221Z,6.70
2022-11-04T06:23:00.927Z,5.00
2022-11-04T06:24:01.232Z,4.27
2022-11-04T06:25:01.350Z,4.60
2022-11-04T06:26:00.921Z,5.23
2022-11-04T06:27:01.252Z,5.00
2022-11-04T06:28:00.923Z,5.00
2022-11-04T06:29:00.944Z,5.10
2022-11-04T06:30:00.931Z,4.20
2022-11-04T06:31:04.981Z,4.70
2022-11-04T06:32:00.933Z,4.93
2022-11-04T06:33:00.963Z,3.57
2022-11-04T06:34:01.350Z,5.27
2022-11-04T06:35:01.054Z,4.90
2022-11-04T06:36:03.577Z,4.20
2022-11-04T06:37:01.393Z,4.63
2022-11-04T06:38:00.910Z,4.00
2022-11-04T06:39:04.565Z,4.27
2022-11-04T06:40:01.275Z,5.03
2022-11-04T06:41:01.806Z,5.47
2022-11-04T06:42:02.952Z,4.80
2022-11-04T06:43:00.934Z,5.70
2022-11-04T06:44:01.267Z,5.23
2022-11-04T06:45:01.252Z,4.27
2022-11-04T06:46:02.497Z,3.67
2022-11-04T06:47:00.974Z,5.17
2022-11-04T06:48:00.926Z,4.83
2022-11-04T06:49:01.214Z,5.63
2022-11-04T06:50:00.927Z,5.67
2022-11-04T06:51:01.469Z,3.97
2022-11-04T06:52:01.232Z,5.17
2022-11-04T06:53:01.390Z,5.83
2022-11-04T06:54:00.923Z,5.57
2022-11-04T06:55:01.222Z,5.63
2022-11-04T06:56:02.947Z,5.53
2022-11-04T06:57:01.232Z,5.70
2022-11-04T06:58:01.221Z,5.00
2022-11-04T06:59:01.589Z,5.43
2022-11-04T07:00:01.026Z,5.73
2022-11-04T07:01:01.025Z,3.83
2022-11-04T07:02:01.068Z,6.63
2022-11-04T07:03:00.939Z,5.17
2022-11-04T07:04:02.613Z,5.27
2022-11-04T07:05:00.962Z,4.83
2022-11-04T07:06:05.093Z,5.53
2022-11-04T07:07:01.211Z,4.23
2022-11-04T07:08:01.247Z,5.27
2022-11-04T07:09:02.526Z,5.40
2022-11-04T07:10:01.431Z,5.10
2022-11-04T07:11:01.876Z,5.50
2022-11-04T07:12:01.230Z,5.87
2022-11-04T07:13:00.969Z,5.03
2022-11-04T07:14:01.316Z,5.87
2022-11-04T07:15:01.159Z,5.27
2022-11-04T07:16:04.258Z,5.60
2022-11-04T07:17:01.041Z,4.53
2022-11-04T07:18:01.457Z,5.57
2022-11-04T07:19:01.248Z,5.57
2022-11-04T07:20:01.349Z,5.07
2022-11-04T07:21:05.763Z,4.90
2022-11-04T07:22:01.236Z,5.17
2022-11-04T07:23:00.948Z,4.70
2022-11-04T07:24:01.813Z,4.73
2022-11-04T07:25:01.229Z,6.20
2022-11-04T07:26:01.897Z,4.60
2022-11-04T07:28:02.481Z,5.13
2022-11-04T07:29:01.282Z,4.47
2022-11-04T07:30:00.929Z,5.53
2022-11-04T07:31:03.320Z,4.90
2022-11-04T07:32:00.912Z,6.03
2022-11-04T07:33:01.222Z,5.43
2022-11-04T07:34:00.962Z,5.87
2022-11-04T07:35:00.944Z,5.70
2022-11-04T07:36:04.060Z,5.00
2022-11-04T07:37:01.442Z,6.20
2022-11-04T07:38:00.934Z,6.60
2022-11-04T07:39:00.929Z,5.93
2022-11-04T07:40:00.949Z,4.90
2022-11-04T07:41:01.853Z,7.00
2022-11-04T07:42:00.916Z,7.70
2022-11-04T07:43:00.981Z,8.63
2022-11-04T07:44:01.266Z,7.17
2022-11-04T07:45:01.255Z,9.67
2022-11-04T07:46:03.082Z,8.77
2022-11-04T07:47:01.239Z,8.20
2022-11-04T07:48:01.593Z,8.73
2022-11-04T07:49:00.945Z,7.30
2022-11-04T07:50:03.971Z,7.40
2022-11-04T07:51:02.280Z,12.47
2022-11-04T07:52:00.934Z,13.63
2022-11-04T07:53:00.928Z,11.67
2022-11-04T07:54:01.317Z,5.67
2022-11-04T07:55:00.924Z,7.80
2022-11-04T07:56:03.767Z,7.47
2022-11-04T07:57:00.937Z,5.43
2022-11-04T07:58:00.950Z,5.07
2022-11-04T07:59:01.292Z,4.90
2022-11-04T08:00:01.561Z,6.03
2022-11-04T08:01:03.586Z,6.23
2022-11-04T08:02:01.078Z,5.50
2022-11-04T08:03:01.250Z,4.90
2022-11-04T08:04:01.067Z,4.97
2022-11-04T08:05:01.270Z,5.60
2022-11-04T08:06:03.220Z,4.93
2022-11-04T08:07:01.246Z,6.07
2022-11-04T08:08:00.961Z,5.60
2022-11-04T08:09:01.023Z,6.37
2022-11-04T08:10:01.761Z,5.63
2022-11-04T08:11:04.207Z,5.63
2022-11-04T08:12:01.208Z,4.17
2022-11-04T08:13:01.239Z,4.77
2022-11-04T08:14:03.572Z,4.90
2022-11-04T08:15:01.230Z,5.20
2022-11-04T08:16:03.421Z,5.33
2022-11-04T08:17:01.229Z,5.03
2022-11-04T08:18:00.914Z,5.13
2022-11-04T08:19:01.573Z,4.17
2022-11-04T08:20:00.943Z,5.00
2022-11-04T08:21:02.375Z,3.90
2022-11-04T08:22:01.257Z,3.67
2022-11-04T08:23:00.922Z,3.43
2022-11-04T08:24:01.248Z,4.70
2022-11-04T08:25:01.231Z,4.17
2022-11-04T08:26:01.619Z,4.43
2022-11-04T08:27:01.381Z,4.43
2022-11-04T08:28:01.364Z,5.00
2022-11-04T08:29:00.981Z,3.57
2022-11-04T08:30:00.950Z,4.33
2022-11-04T08:31:04.826Z,4.87
2022-11-04T08:32:01.549Z,5.87
2022-11-04T08:33:00.922Z,5.07
2022-11-04T08:34:01.272Z,5.17
2022-11-04T08:35:00.924Z,5.73
2022-11-04T08:36:05.852Z,4.97
2022-11-04T08:37:00.943Z,4.83
2022-11-04T08:38:01.271Z,4.60
2022-11-04T08:39:05.853Z,3.57
2022-11-04T08:40:01.022Z,4.13
2022-11-04T08:41:02.810Z,4.23
2022-11-04T08:42:01.243Z,4.37
2022-11-04T08:43:01.808Z,4.37
2022-11-04T08:44:01.346Z,4.03
2022-11-04T08:45:01.241Z,4.87
2022-11-04T08:46:01.845Z,4.20
2022-11-04T08:47:02.262Z,3.87
2022-11-04T08:48:05.359Z,4.77
2022-11-04T08:49:01.796Z,4.37
2022-11-04T08:50:01.240Z,4.97
2022-11-04T08:51:01.867Z,4.67
2022-11-04T08:52:00.930Z,4.90
2022-11-04T08:53:02.232Z,5.17
2022-11-04T08:54:01.505Z,4.13
2022-11-04T08:55:00.938Z,4.77
2022-11-04T08:56:08.213Z,4.27
2022-11-04T08:57:01.295Z,4.87
2022-11-04T08:58:01.507Z,4.73
2022-11-04T08:59:03.249Z,3.60
2022-11-04T09:00:01.112Z,3.23
2022-11-04T09:01:03.172Z,4.37
2022-11-04T09:02:01.005Z,3.43
2022-11-04T09:03:01.422Z,4.33
2022-11-04T09:04:01.357Z,4.00
2022-11-04T09:05:01.242Z,3.13
2022-11-04T09:06:01.250Z,5.00
2022-11-04T09:07:07.929Z,5.07
2022-11-04T09:08:00.943Z,4.53
2022-11-04T09:09:01.403Z,4.80
2022-11-04T09:10:01.227Z,4.43
2022-11-04T09:11:00.959Z,4.90
2022-11-04T09:12:00.920Z,4.47
2022-11-04T09:13:01.216Z,4.13
2022-11-04T09:14:01.578Z,4.27
2022-11-04T09:15:01.313Z,4.67
2022-11-04T09:16:01.739Z,5.10
2022-11-04T09:17:01.299Z,5.33
2022-11-04T09:18:00.938Z,5.10
2022-11-04T09:19:01.720Z,5.80
2022-11-04T09:20:01.298Z,4.17
2022-11-04T09:21:02.760Z,4.47
2022-11-04T09:22:00.936Z,4.43
2022-11-04T09:23:00.942Z,4.80
2022-11-04T09:24:00.942Z,4.70
2022-11-04T09:25:01.293Z,4.20
2022-11-04T09:26:04.432Z,4.33
2022-11-04T09:27:01.474Z,3.93
2022-11-04T09:28:01.863Z,4.30
2022-11-04T09:29:00.933Z,3.90
2022-11-04T09:30:00.956Z,4.83
2022-11-04T09:31:05.847Z,4.67
2022-11-04T09:32:01.290Z,4.37
2022-11-04T09:33:01.291Z,4.13
2022-11-04T09:34:01.421Z,4.37
2022-11-04T09:35:00.933Z,5.30
2022-11-04T09:36:01.243Z,4.40
2022-11-04T09:37:00.991Z,4.93
2022-11-04T09:38:01.385Z,4.97
2022-11-04T09:39:01.237Z,4.10
2022-11-04T09:40:00.931Z,3.97
2022-11-04T09:41:01.124Z,4.50
2022-11-04T09:42:14.560Z,4.70
2022-11-04T09:43:13.516Z,5.00
2022-11-04T09:44:09.680Z,5.07
2022-11-04T09:45:21.283Z,5.00
2022-11-04T09:46:02.162Z,6.33
2022-11-04T09:47:02.332Z,5.00
2022-11-04T09:48:06.751Z,5.10
2022-11-04T09:49:04.143Z,5.53
2022-11-04T09:50:02.814Z,5.33
2022-11-04T09:51:04.609Z,4.57
2022-11-04T09:52:03.944Z,5.47
2022-11-04T09:53:07.559Z,5.73
2022-11-04T09:54:10.015Z,5.00
2022-11-04T09:55:10.660Z,5.90
2022-11-04T09:56:06.254Z,5.73
2022-11-04T09:57:02.647Z,4.30
2022-11-04T09:58:01.010Z,5.40
2022-11-04T09:59:02.982Z,5.17
2022-11-04T10:00:01.349Z,5.10
2022-11-04T10:01:08.219Z,5.67
2022-11-04T10:02:22.309Z,4.80
2022-11-04T10:03:17.847Z,5.87
2022-11-04T10:04:14.632Z,5.90
2022-11-04T10:05:11.302Z,4.93
2022-11-04T10:06:14.676Z,5.67
2022-11-04T10:07:12.024Z,5.63
2022-11-04T10:08:18.822Z,6.10
2022-11-04T10:09:10.443Z,4.93
2022-11-04T10:10:10.848Z,4.80
2022-11-04T10:11:09.865Z,5.90
2022-11-04T10:12:17.830Z,5.90
2022-11-04T10:13:16.964Z,6.10
2022-11-04T10:14:18.025Z,6.73
2022-11-04T10:15:16.551Z,5.87
2022-11-04T10:16:18.251Z,6.23
2022-11-04T10:17:12.909Z,5.40
2022-11-04T10:18:13.643Z,5.90
2022-11-04T10:19:10.911Z,5.13
2022-11-04T10:20:18.521Z,5.97
2022-11-04T10:21:10.492Z,4.93
2022-11-04T10:22:07.439Z,6.27
2022-11-04T10:23:12.956Z,5.00
2022-11-04T10:24:11.246Z,5.80
2022-11-04T10:25:10.083Z,5.90
2022-11-04T10:26:09.989Z,4.97
2022-11-04T10:27:04.765Z,5.90
2022-11-04T10:28:02.422Z,7.90
2022-11-04T10:29:06.109Z,6.03
2022-11-04T10:30:05.810Z,5.33
2022-11-04T10:31:02.751Z,6.70
2022-11-04T10:32:15.998Z,7.03
2022-11-04T10:33:08.182Z,5.63
2022-11-04T10:34:05.777Z,6.47
2022-11-04T10:35:09.976Z,6.33
2022-11-04T10:36:04.927Z,5.87
2022-11-04T10:37:02.504Z,5.03
2022-11-04T10:38:15.729Z,5.93
2022-11-04T10:39:06.617Z,5.27
2022-11-04T10:40:15.774Z,5.33
2022-11-04T10:41:04.483Z,5.87
2022-11-04T10:42:01.453Z,7.57
2022-11-04T10:43:07.250Z,6.70
2022-11-04T10:44:05.573Z,6.20
2022-11-04T10:45:01.496Z,7.20
2022-11-04T10:46:13.362Z,6.90
2022-11-04T10:47:08.567Z,6.73
2022-11-04T10:48:08.796Z,6.40
2022-11-04T10:49:14.549Z,5.77
2022-11-04T10:50:30.363Z,6.23
2022-11-04T10:51:00.973Z,6.07
2022-11-04T10:52:01.496Z,7.33
2022-11-04T10:53:11.053Z,5.90
2022-11-04T10:54:01.301Z,5.33
2022-11-04T10:55:01.264Z,5.77
2022-11-04T10:56:05.667Z,5.70
2022-11-04T10:57:01.025Z,4.13
2022-11-04T10:58:01.723Z,4.30
2022-11-04T10:59:20.838Z,5.23
2022-11-04T11:00:04.983Z,5.40
2022-11-04T11:01:20.473Z,5.27
2022-11-04T11:02:02.856Z,5.27
2022-11-04T11:03:01.367Z,5.30
2022-11-04T11:04:06.429Z,6.00
2022-11-04T11:05:13.247Z,4.60
2022-11-04T11:06:13.779Z,5.83
2022-11-04T11:07:03.442Z,5.50
2022-11-04T11:08:01.277Z,6.23
2022-11-04T11:09:13.313Z,5.00
2022-11-04T11:10:00.981Z,4.50
2022-11-04T11:11:06.734Z,5.07
2022-11-04T11:12:09.872Z,5.83
2022-11-04T11:13:02.941Z,5.33
2022-11-04T11:14:01.250Z,5.07
2022-11-04T11:15:20.406Z,5.10
2022-11-04T11:16:08.052Z,5.00
2022-11-04T11:17:19.813Z,5.77
2022-11-04T11:18:13.946Z,5.43
2022-11-04T11:19:13.959Z,5.00
2022-11-04T11:20:12.253Z,5.83
2022-11-04T11:21:07.374Z,5.90
2022-11-04T11:22:00.977Z,5.60
2022-11-04T11:23:04.877Z,4.90
2022-11-04T11:24:13.574Z,5.53
2022-11-04T11:25:19.655Z,4.27
2022-11-04T11:26:03.186Z,5.10
2022-11-04T11:27:10.244Z,5.23
2022-11-04T11:28:04.073Z,3.87
2022-11-04T11:29:01.071Z,4.07
2022-11-04T11:30:01.029Z,4.27
2022-11-04T11:31:02.815Z,4.17
2022-11-04T11:32:01.029Z,4.43
2022-11-04T11:33:04.305Z,5.63
2022-11-04T11:34:05.757Z,5.60
2022-11-04T11:35:02.771Z,2.97
2022-11-04T11:36:05.997Z,4.03
2022-11-04T11:37:01.636Z,4.03
2022-11-04T11:38:01.848Z,3.37
2022-11-04T11:39:05.161Z,3.37
2022-11-04T11:40:01.342Z,5.20
2022-11-04T11:41:24.261Z,4.77
2022-11-04T11:42:05.118Z,3.90
2022-11-04T11:43:02.904Z,4.57
2022-11-04T11:44:05.540Z,3.63
2022-11-04T11:45:01.363Z,3.53
2022-11-04T11:46:02.387Z,6.47
2022-11-04T11:47:03.900Z,4.30
2022-11-04T11:48:00.938Z,5.33
2022-11-04T11:49:03.549Z,3.90
2022-11-04T11:50:06.354Z,5.40
2022-11-04T11:51:00.943Z,4.30
2022-11-04T11:52:20.404Z,5.60
2022-11-04T11:53:14.632Z,4.10
2022-11-04T11:54:15.578Z,5.53
2022-11-04T11:55:06.689Z,4.37
2022-11-04T11:56:14.112Z,5.03
2022-11-04T11:57:15.344Z,5.07
2022-11-04T12:01:14.038Z,6.20
2022-11-04T12:02:19.787Z,6.73
2022-11-04T12:03:10.947Z,6.97
2022-11-04T12:06:16.807Z,6.47
2022-11-04T12:09:17.451Z,8.67
2022-11-04T12:10:18.445Z,7.90
2022-11-04T12:11:09.893Z,7.43
2022-11-04T12:12:09.430Z,8.07
2022-11-04T12:13:18.435Z,6.80
2022-11-04T12:14:05.362Z,8.33
2022-11-04T12:15:14.845Z,7.90
2022-11-04T12:16:17.383Z,7.80
2022-11-04T12:17:14.011Z,7.37
2022-11-04T12:18:16.381Z,7.77
2022-11-04T12:19:17.784Z,7.60
2022-11-04T12:20:15.342Z,6.83
2022-11-04T12:21:10.206Z,7.67
2022-11-04T12:22:09.196Z,6.90
2022-11-04T12:23:12.680Z,6.03
2022-11-04T12:24:16.233Z,6.13
2022-11-04T12:25:10.800Z,6.77
2022-11-04T12:26:12.420Z,6.47
2022-11-04T12:27:08.115Z,7.50
2022-11-04T12:28:09.102Z,8.30
2022-11-04T12:29:17.381Z,7.60
2022-11-04T12:30:07.431Z,8.20
2022-11-04T12:31:13.354Z,9.60
2022-11-04T12:32:11.586Z,8.13
2022-11-04T12:33:12.938Z,8.07
2022-11-04T12:34:10.731Z,7.37
2022-11-04T12:35:17.913Z,9.07
2022-11-04T12:36:16.495Z,8.10
2022-11-04T12:37:16.816Z,7.10
2022-11-04T12:38:15.704Z,8.07
2022-11-04T12:39:17.499Z,9.17
2022-11-04T12:40:10.648Z,7.50
2022-11-04T12:41:37.534Z,7.10
2022-11-04T12:42:21.711Z,8.10
2022-11-04T12:43:18.205Z,7.23
2022-11-04T12:44:12.353Z,7.37
2022-11-04T12:45:17.779Z,6.63
2022-11-04T12:46:11.383Z,8.00
2022-11-04T12:47:14.966Z,7.23
2022-11-04T12:48:08.821Z,6.77
2022-11-04T12:49:20.468Z,6.93
2022-11-04T12:50:12.057Z,9.53
2022-11-04T12:51:07.731Z,7.80
2022-11-04T12:52:10.022Z,8.67
2022-11-04T12:53:18.630Z,7.80
2022-11-04T12:54:17.385Z,7.07
2022-11-04T12:55:18.212Z,7.17
2022-11-04T12:56:08.443Z,5.87
2022-11-04T12:57:14.560Z,6.30
2022-11-04T12:58:13.506Z,5.87
2022-11-04T12:59:20.402Z,5.90
2022-11-04T13:00:08.299Z,6.80
2022-11-04T13:01:08.603Z,6.13
2022-11-04T13:02:10.620Z,5.23
2022-11-04T13:03:09.150Z,5.47
2022-11-04T13:04:08.714Z,5.77
2022-11-04T13:05:07.897Z,5.13
2022-11-04T13:06:06.285Z,5.73
2022-11-04T13:07:08.954Z,5.23
2022-11-04T13:08:14.234Z,5.37
2022-11-04T13:09:04.844Z,4.53
2022-11-04T13:10:06.777Z,5.30
2022-11-04T13:11:07.128Z,5.63
2022-11-04T13:12:08.820Z,5.83
2022-11-04T13:13:02.510Z,5.57
2022-11-04T13:14:06.182Z,5.53
2022-11-04T13:15:06.898Z,6.03
2022-11-04T13:16:05.287Z,6.60
2022-11-04T13:17:06.099Z,5.27
2022-11-04T13:18:06.905Z,5.23
2022-11-04T13:19:01.567Z,5.57
2022-11-04T13:20:12.828Z,6.70
2022-11-04T13:21:04.983Z,6.90
2022-11-04T13:22:08.862Z,5.77
2022-11-04T13:23:06.852Z,6.33
2022-11-04T13:24:04.193Z,5.13
2022-11-04T13:25:06.526Z,5.63
2022-11-04T13:26:05.271Z,5.93